createdAt,value
2018-09-04T00:01:33.473Z,99.90
2018-09-04T00:04:01.539Z,99.90
2018-09-04T00:06:29.630Z,99.90
2018-09-04T00:08:57.706Z,99.90
2018-09-04T00:11:25.769Z,99.90
2018-09-04T00:13:53.858Z,99.90
2018-09-04T00:16:22.213Z,99.90
2018-09-04T00:18:50.306Z,99.90
2018-09-04T00:21:18.390Z,99.90
2018-09-04T00:23:46.441Z,99.90
2018-09-04T00:26:14.539Z,99.90
2018-09-04T00:28:42.613Z,99.90
2018-09-04T00:31:10.676Z,99.90
2018-09-04T00:33:38.767Z,99.90
2018-09-04T00:36:07.596Z,99.90
2018-09-04T00:38:35.666Z,99.90
2018-09-04T00:41:03.734Z,99.90
2018-09-04T00:43:31.824Z,99.90
2018-09-04T00:45:59.886Z,99.90
2018-09-04T00:48:27.954Z,99.90
2018-09-04T00:50:56.048Z,99.90
2018-09-04T00:53:24.121Z,99.90
2018-09-04T00:55:52.201Z,99.90
2018-09-04T00:58:20.267Z,99.90
2018-09-04T01:00:48.348Z,99.90
2018-09-04T01:03:16.409Z,99.90
2018-09-04T01:05:44.574Z,99.90
2018-09-04T01:08:12.664Z,99.90
2018-09-04T01:10:40.733Z,99.90
2018-09-04T01:13:08.809Z,99.90
2018-09-04T01:15:36.866Z,99.90
2018-09-04T01:18:05.166Z,99.90
2018-09-04T01:20:33.233Z,99.90
2018-09-04T01:23:01.300Z,99.90
2018-09-04T01:25:29.378Z,99.90
2018-09-04T01:27:57.441Z,99.90
2018-09-04T01:30:25.872Z,99.90
2018-09-04T01:32:54.011Z,99.90
2018-09-04T01:35:22.431Z,99.90
2018-09-04T01:37:50.545Z,99.90
2018-09-04T01:40:18.642Z,99.90
2018-09-04T01:42:46.711Z,99.90
2018-09-04T01:45:14.765Z,99.90
2018-09-04T01:47:42.846Z,99.90
2018-09-04T01:50:10.900Z,99.90
2018-09-04T01:52:38.968Z,99.90
2018-09-04T01:55:07.087Z,99.90
2018-09-04T01:57:35.228Z,99.90
2018-09-04T02:00:03.253Z,99.90
2018-09-04T02:02:31.321Z,99.90
2018-09-04T02:04:59.394Z,99.90
2018-09-04T02:07:27.457Z,99.90
2018-09-04T02:09:55.549Z,99.90
2018-09-04T02:12:23.722Z,99.90
2018-09-04T02:14:51.772Z,99.90
2018-09-04T02:17:19.847Z,99.90
2018-09-04T02:19:47.921Z,99.90
2018-09-04T02:22:15.990Z,99.90
2018-09-04T02:24:44.049Z,99.90
2018-09-04T02:27:12.118Z,99.90
2018-09-04T02:29:40.185Z,99.90
2018-09-04T02:32:08.262Z,99.90
2018-09-04T02:34:36.322Z,99.90
2018-09-04T02:37:04.401Z,99.90
2018-09-04T02:39:32.468Z,99.90
2018-09-04T02:42:00.541Z,99.90
2018-09-04T02:44:28.618Z,99.90
2018-09-04T02:46:56.701Z,99.90
2018-09-04T02:49:24.796Z,99.90
2018-09-04T02:51:52.874Z,99.90
2018-09-04T02:54:21.042Z,99.90
2018-09-04T02:56:49.113Z,99.90
2018-09-04T02:59:17.198Z,99.90
2018-09-04T03:01:45.310Z,99.90
2018-09-04T03:04:13.397Z,99.90
2018-09-04T03:06:41.493Z,99.90
2018-09-04T03:09:09.563Z,99.90
2018-09-04T03:11:37.660Z,99.90
2018-09-04T03:14:05.734Z,99.90
2018-09-04T03:16:33.809Z,99.90
2018-09-04T03:19:01.886Z,99.90
2018-09-04T03:21:29.953Z,99.90
2018-09-04T03:23:58.044Z,99.90
2018-09-04T03:26:26.108Z,99.90
2018-09-04T03:28:54.190Z,99.90
2018-09-04T03:31:22.272Z,99.90
2018-09-04T03:33:50.332Z,99.90
2018-09-04T03:36:18.443Z,99.90
2018-09-04T03:38:46.509Z,99.90
2018-09-04T03:41:14.610Z,99.90
2018-09-04T03:43:42.670Z,99.90
2018-09-04T03:46:10.738Z,99.90
2018-09-04T03:48:38.817Z,99.90
2018-09-04T03:51:06.894Z,99.90
2018-09-04T03:53:34.971Z,99.90
2018-09-04T03:56:03.069Z,99.90
2018-09-04T03:58:31.145Z,99.90
2018-09-04T04:00:59.230Z,99.90
2018-09-04T04:03:27.317Z,99.90
2018-09-04T04:05:55.377Z,99.90
2018-09-04T04:08:23.445Z,99.90
2018-09-04T04:10:51.551Z,99.90
2018-09-04T04:13:19.705Z,99.90
2018-09-04T04:15:48.218Z,99.90
2018-09-04T04:18:16.292Z,99.90
2018-09-04T04:20:56.154Z,99.90
2018-09-04T04:23:24.226Z,99.90
2018-09-04T04:25:52.276Z,99.90
2018-09-04T04:28:20.369Z,99.90
2018-09-04T04:30:48.450Z,99.90
2018-09-04T04:33:16.587Z,99.90
2018-09-04T04:35:44.620Z,99.90
2018-09-04T04:38:12.689Z,99.90
2018-09-04T04:40:41.853Z,99.90
2018-09-04T04:43:10.330Z,99.90
2018-09-04T04:45:38.482Z,99.90
2018-09-04T04:48:06.558Z,99.90
2018-09-04T04:50:34.626Z,99.90
2018-09-04T04:53:02.686Z,99.90
2018-09-04T04:55:30.986Z,99.90
2018-09-04T04:57:59.057Z,99.90
2018-09-04T05:00:27.158Z,99.90
2018-09-04T05:02:55.289Z,99.90
2018-09-04T05:05:23.806Z,99.90
2018-09-04T05:07:52.056Z,99.90
2018-09-04T05:10:20.313Z,99.90
2018-09-04T05:12:48.394Z,99.90
2018-09-04T05:15:16.469Z,99.90
2018-09-04T05:17:44.536Z,99.90
2018-09-04T05:20:15.538Z,99.90
2018-09-04T05:22:43.676Z,99.90
2018-09-04T05:25:11.900Z,99.90
2018-09-04T05:27:39.986Z,99.90
2018-09-04T05:30:08.093Z,99.90
2018-09-04T05:32:44.368Z,99.90
2018-09-04T05:35:13.678Z,99.90
2018-09-04T05:37:42.852Z,99.90
2018-09-04T05:40:11.338Z,99.90
2018-09-04T05:42:58.366Z,99.90
2018-09-04T05:45:27.882Z,99.90
2018-09-04T05:48:01.244Z,99.90
2018-09-04T05:50:29.375Z,99.90
2018-09-04T05:52:57.808Z,99.90
2018-09-04T05:55:25.870Z,99.90
2018-09-04T05:57:53.961Z,99.90
2018-09-04T06:00:26.322Z,99.90
2018-09-04T06:02:54.429Z,99.90
2018-09-04T06:05:22.997Z,99.90
2018-09-04T06:07:51.112Z,99.90
2018-09-04T06:10:19.164Z,99.90
2018-09-04T06:12:47.325Z,99.90
2018-09-04T06:15:15.440Z,99.90
2018-09-04T06:17:43.514Z,99.90
2018-09-04T06:20:12.100Z,99.90
2018-09-04T06:22:40.122Z,99.90
2018-09-04T06:25:08.201Z,99.90
2018-09-04T06:27:36.258Z,99.90
2018-09-04T06:30:04.426Z,99.90
2018-09-04T06:32:32.539Z,99.90
2018-09-04T06:35:00.585Z,99.90
2018-09-04T06:37:28.670Z,99.90
2018-09-04T06:39:56.745Z,99.90
2018-09-04T06:42:24.843Z,99.90
2018-09-04T06:44:52.926Z,99.90
2018-09-04T06:47:21.112Z,99.90
2018-09-04T06:49:49.187Z,99.90
2018-09-04T06:52:17.325Z,99.90
2018-09-04T06:54:45.518Z,99.90
2018-09-04T06:57:13.505Z,99.90
2018-09-04T06:59:41.614Z,99.90
2018-09-04T07:02:09.697Z,99.90
2018-09-04T07:04:37.781Z,99.90
2018-09-04T07:07:05.842Z,99.90
2018-09-04T07:09:33.938Z,99.90
2018-09-04T07:12:02.013Z,99.90
2018-09-04T07:14:30.113Z,99.90
2018-09-04T07:16:58.278Z,99.90
2018-09-04T07:19:26.313Z,99.90
2018-09-04T07:21:54.417Z,99.90
2018-09-04T07:24:23.069Z,99.90
2018-09-04T07:26:51.157Z,99.90
2018-09-04T07:29:19.235Z,99.90
2018-09-04T07:31:47.313Z,99.90
2018-09-04T07:34:15.379Z,99.90
2018-09-04T07:36:43.477Z,99.90
2018-09-04T07:39:12.414Z,99.90
2018-09-04T07:41:40.939Z,99.90
2018-09-04T07:44:09.016Z,99.90
2018-09-04T07:46:37.231Z,99.90
2018-09-04T07:49:05.411Z,99.90
2018-09-04T07:51:33.498Z,99.90
2018-09-04T07:54:01.672Z,99.90
2018-09-04T07:56:29.756Z,99.90
2018-09-04T07:58:57.830Z,99.90
2018-09-04T08:01:25.909Z,99.90
2018-09-04T08:03:53.980Z,99.90
2018-09-04T08:06:22.065Z,99.90
2018-09-04T08:08:50.130Z,99.90
2018-09-04T08:11:18.216Z,99.90
2018-09-04T08:13:46.276Z,99.90
2018-09-04T08:16:14.402Z,99.90
2018-09-04T08:18:42.447Z,99.90
2018-09-04T08:21:10.522Z,99.90
2018-09-04T08:23:38.625Z,99.90
2018-09-04T08:26:06.791Z,99.90
2018-09-04T08:28:34.880Z,99.90
2018-09-04T08:31:03.023Z,99.90
2018-09-04T08:33:31.134Z,99.90
2018-09-04T08:35:59.203Z,99.90
2018-09-04T08:38:27.265Z,99.90
2018-09-04T08:40:55.336Z,99.90
2018-09-04T08:43:23.503Z,99.90
2018-09-04T08:45:51.584Z,99.90
2018-09-04T08:48:21.144Z,99.90
2018-09-04T08:50:49.244Z,99.90
2018-09-04T08:53:17.950Z,99.90
2018-09-04T08:55:46.106Z,99.90
2018-09-04T08:58:14.177Z,99.90
2018-09-04T09:00:42.242Z,99.90
2018-09-04T09:03:10.347Z,99.90
2018-09-04T09:05:38.535Z,99.90
2018-09-04T09:08:06.592Z,99.90
2018-09-04T09:10:34.686Z,99.90
2018-09-04T09:13:02.760Z,99.90
2018-09-04T09:15:30.842Z,99.90
2018-09-04T09:17:58.909Z,99.90
2018-09-04T09:20:26.981Z,99.70
2018-09-04T09:22:55.146Z,97.90
2018-09-04T09:25:23.154Z,97.10
2018-09-04T09:27:51.380Z,96.00
2018-09-04T09:30:19.725Z,96.10
2018-09-04T09:32:47.867Z,95.30
2018-09-04T09:35:16.032Z,93.90
2018-09-04T09:37:44.252Z,93.70
2018-09-04T09:40:12.318Z,91.10
2018-09-04T09:42:40.434Z,90.30
2018-09-04T09:45:08.527Z,90.10
2018-09-04T09:47:40.901Z,88.30
2018-09-04T09:50:09.098Z,86.60
2018-09-04T09:52:37.252Z,85.90
2018-09-04T09:55:05.997Z,88.20
2018-09-04T09:57:34.087Z,87.90
2018-09-04T10:00:02.169Z,88.40
2018-09-04T10:02:35.841Z,90.00
2018-09-04T10:05:03.921Z,90.70
2018-09-04T10:07:32.069Z,90.90
2018-09-04T10:10:00.202Z,90.10
2018-09-04T10:12:28.248Z,86.70
2018-09-04T10:14:56.445Z,85.00
2018-09-04T10:17:24.520Z,84.00
2018-09-04T10:19:52.675Z,80.90
2018-09-04T10:22:20.717Z,79.60
2018-09-04T10:24:48.805Z,76.70
2018-09-04T10:27:16.868Z,71.50
2018-09-04T10:29:44.928Z,71.20
2018-09-04T10:32:19.562Z,69.30
2018-09-04T10:34:47.629Z,69.60
2018-09-04T10:37:15.772Z,69.10
2018-09-04T10:39:49.378Z,69.60
2018-09-04T10:42:34.132Z,68.60
2018-09-04T10:45:02.258Z,68.60
2018-09-04T10:47:30.325Z,66.10
2018-09-04T10:49:58.394Z,65.60
2018-09-04T10:52:26.473Z,65.10
2018-09-04T10:54:55.060Z,62.60
2018-09-04T10:57:23.129Z,62.00
2018-09-04T10:59:51.241Z,62.40
2018-09-04T11:02:20.197Z,58.70
2018-09-04T11:04:49.053Z,58.20
2018-09-04T11:07:17.245Z,59.00
2018-09-04T11:09:45.368Z,59.20
2018-09-04T11:12:13.365Z,58.40
2018-09-04T11:14:41.435Z,57.90
2018-09-04T11:17:09.709Z,57.70
2018-09-04T11:19:37.777Z,57.30
2018-09-04T11:22:05.857Z,57.60
2018-09-04T11:24:33.917Z,57.60
2018-09-04T11:27:01.982Z,57.10
2018-09-04T11:29:30.102Z,55.50
2018-09-04T11:31:58.293Z,54.50
2018-09-04T11:34:26.383Z,54.60
2018-09-04T11:36:54.471Z,53.60
2018-09-04T11:41:57.017Z,53.40
2018-09-04T11:44:25.062Z,51.40
2018-09-04T11:46:53.178Z,50.80
2018-09-04T11:49:21.223Z,50.00
2018-09-04T11:51:49.281Z,51.00
2018-09-04T11:54:17.339Z,50.20
2018-09-04T11:56:45.408Z,50.10
2018-09-04T11:59:13.470Z,48.80
2018-09-04T12:01:45.145Z,49.90
2018-09-04T12:04:13.209Z,50.80
2018-09-04T12:06:41.355Z,52.80
2018-09-04T12:09:09.374Z,54.20
2018-09-04T12:11:37.429Z,56.70
2018-09-04T12:14:05.486Z,58.10
2018-09-04T12:16:33.582Z,59.20
2018-09-04T12:19:01.683Z,60.50
2018-09-04T12:21:29.712Z,59.90
2018-09-04T12:23:57.796Z,60.50
2018-09-04T12:26:25.852Z,59.30
2018-09-04T12:28:54.233Z,57.00
2018-09-04T12:31:22.304Z,54.60
2018-09-04T12:33:50.452Z,52.10
2018-09-04T12:36:18.477Z,51.00
2018-09-04T12:38:46.563Z,50.70
2018-09-04T12:41:15.721Z,50.70
2018-09-04T12:43:43.813Z,50.50
2018-09-04T12:46:11.900Z,50.20
2018-09-04T12:48:44.223Z,50.20
2018-09-04T12:51:12.308Z,52.70
2018-09-04T12:53:40.389Z,54.50
2018-09-04T12:56:18.689Z,56.40
2018-09-04T12:58:46.734Z,57.00
2018-09-04T13:01:14.817Z,58.20
2018-09-04T13:03:42.890Z,59.20
2018-09-04T13:06:10.957Z,59.40
2018-09-04T13:08:39.030Z,60.20
2018-09-04T13:11:07.105Z,61.80
2018-09-04T13:13:35.170Z,61.70
2018-09-04T13:16:03.233Z,61.60
2018-09-04T13:18:31.310Z,59.70
2018-09-04T13:21:02.507Z,58.70
2018-09-04T13:23:31.199Z,59.10
2018-09-04T13:25:59.301Z,58.30
2018-09-04T13:28:27.876Z,58.10
2018-09-04T13:30:57.194Z,58.60
2018-09-04T13:33:25.240Z,58.00
2018-09-04T13:35:53.289Z,57.30
2018-09-04T13:38:21.367Z,57.20
2018-09-04T13:40:53.689Z,56.30
2018-09-04T13:43:21.772Z,57.00
2018-09-04T13:45:49.814Z,56.20
2018-09-04T13:48:18.467Z,56.90
2018-09-04T13:50:48.467Z,56.70
2018-09-04T13:53:16.587Z,57.90
2018-09-04T13:55:44.686Z,57.70
2018-09-04T13:58:12.885Z,57.30
2018-09-04T14:00:40.950Z,56.60
2018-09-04T14:03:09.012Z,57.60
2018-09-04T14:05:37.086Z,58.30
2018-09-04T14:08:05.538Z,57.80
2018-09-04T14:10:33.725Z,58.20
2018-09-04T14:13:04.189Z,59.00
2018-09-04T14:15:33.883Z,59.00
2018-09-04T14:18:02.193Z,59.40
2018-09-04T14:20:31.277Z,59.60
2018-09-04T14:22:59.353Z,59.20
2018-09-04T14:25:27.444Z,59.60
2018-09-04T14:27:55.505Z,60.40
2018-09-04T14:30:23.585Z,60.10
2018-09-04T14:32:51.657Z,59.60
2018-09-04T14:35:19.733Z,59.20
2018-09-04T14:37:49.607Z,59.60
2018-09-04T14:40:17.721Z,59.30
2018-09-04T14:42:45.847Z,60.80
2018-09-04T14:45:13.981Z,61.20
2018-09-04T14:47:42.064Z,60.10
2018-09-04T14:50:10.246Z,61.20
2018-09-04T14:52:38.317Z,61.10
2018-09-04T14:55:06.381Z,61.30
2018-09-04T14:58:03.393Z,61.00
2018-09-04T15:00:31.507Z,61.50
2018-09-04T15:02:59.588Z,62.10
2018-09-04T15:05:27.760Z,63.20
2018-09-04T15:07:55.836Z,62.60
2018-09-04T15:10:23.897Z,62.60
2018-09-04T15:12:51.990Z,60.40
2018-09-04T15:15:20.437Z,61.10
2018-09-04T15:17:48.566Z,62.00
2018-09-04T15:20:16.648Z,61.00
2018-09-04T15:22:44.724Z,62.30
2018-09-04T15:25:12.812Z,62.10
2018-09-04T15:27:40.918Z,62.10
2018-09-04T15:30:08.993Z,64.40
2018-09-04T15:32:37.099Z,63.80
2018-09-04T15:35:05.424Z,65.60
2018-09-04T15:37:34.634Z,64.80
2018-09-04T15:40:02.997Z,65.20
2018-09-04T15:42:31.157Z,65.50
2018-09-04T15:44:59.155Z,64.90
2018-09-04T15:47:27.853Z,65.30
2018-09-04T15:49:55.945Z,65.50
2018-09-04T15:52:24.046Z,67.60
2018-09-04T15:54:52.114Z,66.30
2018-09-04T15:57:20.199Z,65.60
2018-09-04T15:59:48.258Z,67.40
2018-09-04T16:02:16.329Z,68.50
2018-09-04T16:04:44.419Z,68.70
2018-09-04T16:07:12.485Z,68.00
2018-09-04T16:09:40.681Z,67.30
2018-09-04T16:12:08.706Z,71.10
2018-09-04T16:14:38.320Z,71.40
2018-09-04T16:17:06.470Z,71.30
2018-09-04T16:19:35.189Z,69.90
2018-09-04T16:22:03.255Z,70.10
2018-09-04T16:24:31.379Z,69.80
2018-09-04T16:26:59.437Z,72.20
2018-09-04T16:29:27.521Z,72.10
2018-09-04T16:31:55.610Z,71.60
2018-09-04T16:34:23.747Z,72.80
2018-09-04T16:36:51.775Z,71.60
2018-09-04T16:39:19.939Z,72.70
2018-09-04T16:41:48.000Z,73.50
2018-09-04T16:44:16.126Z,74.50
2018-09-04T16:46:44.199Z,74.70
2018-09-04T16:49:12.302Z,73.30
2018-09-04T16:51:40.380Z,74.40
2018-09-04T16:54:08.469Z,74.20
2018-09-04T16:56:36.586Z,74.60
2018-09-04T16:59:05.009Z,75.40
2018-09-04T17:01:33.103Z,74.70
2018-09-04T17:04:01.181Z,75.50
2018-09-04T17:06:29.314Z,77.20
2018-09-04T17:08:57.436Z,77.60
2018-09-04T17:11:25.529Z,77.30
2018-09-04T17:13:53.598Z,78.40
2018-09-04T17:16:21.656Z,79.80
2018-09-04T17:18:49.794Z,79.70
2018-09-04T17:21:17.874Z,79.60
2018-09-04T17:23:46.026Z,79.90
2018-09-04T17:26:14.171Z,80.70
2018-09-04T17:28:42.291Z,81.10
2018-09-04T17:31:10.349Z,82.30
2018-09-04T17:33:38.525Z,82.70
2018-09-04T17:36:06.605Z,84.10
2018-09-04T17:38:34.745Z,84.50
2018-09-04T17:41:02.886Z,83.30
2018-09-04T17:43:31.001Z,85.10
2018-09-04T17:45:59.108Z,85.90
2018-09-04T17:48:27.214Z,85.10
2018-09-04T17:50:55.337Z,86.80
2018-09-04T17:53:23.393Z,85.60
2018-09-04T17:55:51.536Z,85.70
2018-09-04T17:58:21.661Z,86.80
2018-09-04T18:00:49.835Z,88.70
2018-09-04T18:03:17.905Z,88.40
2018-09-04T18:05:46.073Z,89.10
2018-09-04T18:08:14.185Z,90.10
2018-09-04T18:10:42.266Z,90.60
2018-09-04T18:13:10.383Z,91.60
2018-09-04T18:15:38.542Z,91.60
2018-09-04T18:18:06.813Z,92.30
2018-09-04T18:20:34.909Z,93.20
2018-09-04T18:23:02.985Z,93.50
2018-09-04T18:25:31.140Z,94.30
2018-09-04T18:27:59.243Z,93.80
2018-09-04T18:30:27.475Z,94.90
2018-09-04T18:32:55.546Z,94.80
2018-09-04T18:35:23.645Z,95.70
2018-09-04T18:37:51.705Z,96.10
2018-09-04T18:40:19.832Z,96.10
2018-09-04T18:42:47.906Z,96.00
2018-09-04T18:45:27.373Z,96.60
2018-09-04T18:47:55.781Z,97.30
2018-09-04T18:50:23.935Z,97.30
2018-09-04T18:52:52.037Z,97.60
2018-09-04T18:55:20.168Z,97.50
2018-09-04T18:57:48.267Z,98.10
2018-09-04T19:00:17.297Z,98.70
2018-09-04T19:02:45.413Z,99.00
2018-09-04T19:05:13.489Z,99.00
2018-09-04T19:07:41.599Z,99.10
2018-09-04T19:10:09.689Z,99.80
2018-09-04T19:12:37.781Z,99.90
2018-09-04T19:15:05.893Z,99.90
2018-09-04T19:17:34.047Z,99.90
2018-09-04T19:20:02.106Z,99.90
2018-09-04T19:22:30.209Z,99.90
2018-09-04T19:24:58.393Z,99.90
2018-09-04T19:27:26.537Z,99.90
2018-09-04T19:29:54.723Z,99.90
2018-09-04T19:32:23.265Z,99.90
2018-09-04T19:34:51.513Z,99.90
2018-09-04T19:37:19.639Z,99.90
2018-09-04T19:39:47.908Z,99.90
2018-09-04T19:42:16.740Z,99.90
2018-09-04T19:44:44.956Z,99.90
2018-09-04T19:47:13.145Z,99.90
2018-09-04T19:49:41.227Z,99.90
2018-09-04T19:52:09.324Z,99.90
2018-09-04T19:54:37.410Z,99.90
2018-09-04T19:57:06.162Z,99.90
2018-09-04T19:59:34.349Z,99.90
2018-09-04T20:02:03.236Z,99.90
2018-09-04T20:04:32.558Z,99.90
2018-09-04T20:07:00.624Z,99.90
2018-09-04T20:09:28.690Z,99.90
2018-09-04T20:11:56.738Z,99.90
2018-09-04T20:14:24.821Z,99.90
2018-09-04T20:16:52.933Z,99.90
2018-09-04T20:19:21.021Z,99.90
2018-09-04T20:21:49.148Z,99.90
2018-09-04T20:24:17.220Z,99.90
2018-09-04T20:26:45.327Z,99.90
2018-09-04T20:29:13.431Z,99.90
2018-09-04T20:31:41.493Z,99.90
2018-09-04T20:34:09.562Z,99.90
2018-09-04T20:36:37.664Z,99.90
2018-09-04T20:39:06.050Z,99.90
2018-09-04T20:41:34.108Z,99.90
2018-09-04T20:44:02.225Z,99.90
2018-09-04T20:46:30.325Z,99.90
2018-09-04T20:48:58.417Z,99.90
2018-09-04T20:51:26.530Z,99.90
2018-09-04T20:53:54.595Z,99.90
2018-09-04T20:56:22.674Z,99.90
2018-09-04T20:59:02.397Z,99.90
2018-09-04T21:01:42.393Z,99.90
2018-09-04T21:04:22.029Z,99.90
2018-09-04T21:06:50.509Z,99.90
2018-09-04T21:09:28.418Z,99.90
2018-09-04T21:11:56.507Z,99.90
2018-09-04T21:14:25.011Z,99.90
2018-09-04T21:16:53.301Z,99.90
2018-09-04T21:19:21.345Z,99.90
2018-09-04T21:21:49.397Z,99.90
2018-09-04T21:24:17.526Z,99.90
2018-09-04T21:26:45.592Z,99.90
2018-09-04T21:29:13.710Z,99.90
2018-09-04T21:31:41.821Z,99.90
2018-09-04T21:34:09.894Z,99.90
2018-09-04T21:36:37.975Z,99.90
2018-09-04T21:39:07.315Z,99.90
2018-09-04T21:41:35.465Z,99.90
2018-09-04T21:44:03.613Z,99.90
2018-09-04T21:46:31.870Z,99.90
2018-09-04T21:48:59.925Z,99.90
2018-09-04T21:51:28.013Z,99.90
2018-09-04T21:53:56.102Z,99.90
2018-09-04T21:56:24.191Z,99.90
2018-09-04T21:58:52.249Z,99.90
2018-09-04T22:01:20.378Z,99.90
2018-09-04T22:03:48.521Z,99.90
2018-09-04T22:06:16.886Z,99.90
2018-09-04T22:08:45.226Z,99.90
2018-09-04T22:11:13.297Z,99.90
2018-09-04T22:13:41.475Z,99.90
2018-09-04T22:16:09.551Z,99.90
2018-09-04T22:18:37.637Z,99.90
2018-09-04T22:21:06.203Z,99.90
2018-09-04T22:23:34.350Z,99.90
2018-09-04T22:26:02.433Z,99.90
2018-09-04T22:28:30.517Z,99.90
2018-09-04T22:30:58.636Z,99.90
2018-09-04T22:33:26.805Z,99.90
2018-09-04T22:35:54.895Z,99.90
2018-09-04T22:38:22.974Z,99.90
2018-09-04T22:40:51.119Z,99.90
2018-09-04T22:43:19.229Z,99.90
2018-09-04T22:45:47.321Z,99.90
2018-09-04T22:48:15.386Z,99.90
2018-09-04T22:50:48.862Z,99.90
2018-09-04T22:53:16.930Z,99.90
2018-09-04T22:55:45.008Z,99.90
2018-09-04T22:58:13.085Z,99.90
2018-09-04T23:00:41.155Z,99.90
2018-09-04T23:03:09.226Z,99.90
2018-09-04T23:05:37.330Z,99.90
2018-09-04T23:08:05.404Z,99.90
2018-09-04T23:10:33.482Z,99.90
2018-09-04T23:13:01.566Z,99.90
2018-09-04T23:15:29.634Z,99.90
2018-09-04T23:17:57.710Z,99.90
2018-09-04T23:20:25.829Z,99.90
2018-09-04T23:22:53.885Z,99.90
2018-09-04T23:25:21.917Z,99.90
2018-09-04T23:27:49.985Z,99.90
2018-09-04T23:30:18.041Z,99.90
2018-09-04T23:32:46.508Z,99.90
2018-09-04T23:35:14.567Z,99.90
2018-09-04T23:37:42.589Z,99.90
2018-09-04T23:40:10.628Z,99.90
2018-09-04T23:42:38.708Z,99.90
2018-09-04T23:45:06.752Z,99.90
2018-09-04T23:47:34.785Z,99.90
2018-09-04T23:50:02.838Z,99.90
2018-09-04T23:52:30.876Z,99.90
2018-09-04T23:54:58.920Z,99.90
2018-09-04T23:57:26.979Z,99.90
2018-09-04T23:59:55.017Z,99.90
